Hlavní strana
METAR-TAF:

METAR-TAF

Letiště :

Hostomel, Ukrajina

zeměpisná šířka: 50-36-01N, zeměpisná délka: 030-11-37E, výška: 157 m

Aktuální stav počasí

Zpráva byla vytvořena před 29 minutami, v 04:00 UTC
Severozápadní vítr 8 kt
Teplota -1°C
Vlhkost vzduchu 50%
Tlak 1030 hPa
Viditelnost: 1900 m
kouřmo

METAR: UKKM 050400Z AUTO 31004MPS 1900 BR M01/M10 Q1030

Čas: 07:29 (04:29 UTC)


TAF: chybějící

Stav a předpovědi počasí z více než 4 000 letišť (zprávy METAR a TAF).

Červené a žluté tečky na mapě představují dostupné meteorologické stanice.

Když kurzor umístíte na tečku, zobrazí se název stanice.

Pak kliknutím zobrazíte stav a předpověď počasí.

Chcete-li změnit mapu, kliknutím na zelené tlačítko se znaménkem +mapu přiblížíte, kliknutím na zelené tlačítko se znaménkem – mapu oddálíte a kliknutím na zelené šipky přejdete na sousední mapy.


METAR-TAF: